Time;durP1;ratioP1;P1;durP2;ratioP2;P2;SDS_P1;SDS_P2;PMS_P1;PMS_P2;Temp;Humidity;BMP_temperature;BMP_pressure;BME280_temperature;BME280_humidity;BME280_pressure;Samples;Min_cycle;Max_cycle;Signal;HPM_P1;HPM_P2
2021/11/15 00:01:19;;;;;;;76.38;29.42;;;8.30;99.90;;;;;;5053546;28;20129;-78
2021/11/15 00:03:48;;;;;;;81.85;29.85;;;8.30;99.90;;;;;;5067311;28;20690;-78
2021/11/15 00:06:14;;;;;;;87.13;30.15;;;8.30;99.90;;;;;;5053773;28;20095;-78
2021/11/15 00:08:41;;;;;;;84.90;30.10;;;8.30;99.90;;;;;;5052203;28;20486;-78
2021/11/15 00:11:08;;;;;;;85.88;29.55;;;8.30;99.90;;;;;;5052362;28;20076;-79
2021/11/15 00:13:35;;;;;;;73.90;28.33;;;8.30;99.90;;;;;;5034321;28;20490;-78
2021/11/15 00:16:03;;;;;;;85.82;30.58;;;8.30;99.90;;;;;;5052064;28;20072;-78
2021/11/15 00:18:30;;;;;;;82.40;29.58;;;8.30;99.90;;;;;;5051917;28;20048;-79
2021/11/15 00:20:57;;;;;;;83.35;30.60;;;8.30;99.90;;;;;;5051876;28;20124;-78
2021/11/15 00:23:24;;;;;;;82.10;30.77;;;8.30;99.90;;;;;;5048833;28;20042;-78
2021/11/15 00:25:54;;;;;;;88.60;29.67;;;8.30;99.90;;;;;;5047092;28;20464;-78
2021/11/15 00:28:20;;;;;;;83.13;29.95;;;8.30;99.90;;;;;;5034564;28;20060;-78
2021/11/15 00:30:47;;;;;;;79.30;29.20;;;8.30;99.90;;;;;;5033587;28;20049;-78
2021/11/15 00:33:14;;;;;;;78.32;29.40;;;8.30;99.90;;;;;;5060308;28;20102;-78
2021/11/15 00:35:41;;;;;;;86.53;30.67;;;8.30;99.90;;;;;;5032172;28;20076;-78
2021/11/15 00:38:08;;;;;;;86.10;31.60;;;8.30;99.90;;;;;;5034219;28;20091;-78
2021/11/15 00:40:34;;;;;;;88.95;32.63;;;8.30;99.90;;;;;;5042170;28;20162;-78
2021/11/15 00:43:02;;;;;;;91.85;31.63;;;8.30;99.90;;;;;;5012583;28;20781;-73
2021/11/15 00:45:28;;;;;;;88.03;31.42;;;8.20;99.90;;;;;;5013186;28;20395;-73
2021/11/15 00:47:55;;;;;;;91.97;30.00;;;8.30;99.90;;;;;;5034281;28;20167;-72
2021/11/15 00:50:23;;;;;;;85.72;30.25;;;8.20;99.90;;;;;;5044717;28;20076;-72
2021/11/15 00:52:50;;;;;;;92.30;31.95;;;8.20;99.90;;;;;;5029242;28;20084;-72
2021/11/15 00:55:19;;;;;;;87.07;31.63;;;8.20;99.90;;;;;;5040089;28;20049;-72
2021/11/15 00:57:46;;;;;;;87.00;31.75;;;8.20;99.90;;;;;;5033592;28;20149;-72
2021/11/15 01:00:17;;;;;;;84.78;29.98;;;8.20;99.90;;;;;;5035867;28;20048;-73
2021/11/15 01:02:44;;;;;;;90.18;32.35;;;8.20;99.90;;;;;;5039420;28;20748;-72
2021/11/15 01:05:12;;;;;;;83.50;29.90;;;8.20;99.90;;;;;;5040416;28;20508;-72
2021/11/15 01:07:39;;;;;;;87.32;31.83;;;8.20;99.90;;;;;;5031768;28;20052;-72
2021/11/15 01:10:08;;;;;;;80.75;28.52;;;8.20;99.90;;;;;;5026592;28;20053;-72
2021/11/15 01:12:35;;;;;;;81.10;29.00;;;8.20;99.90;;;;;;5030998;28;20642;-72
2021/11/15 01:15:04;;;;;;;80.13;29.08;;;8.20;99.90;;;;;;5031150;28;20084;-73
2021/11/15 01:17:31;;;;;;;83.93;30.05;;;8.20;99.90;;;;;;5034287;28;20401;-72
2021/11/15 01:19:57;;;;;;;80.80;29.20;;;8.20;99.90;;;;;;5025558;28;20549;-73
2021/11/15 01:22:24;;;;;;;78.80;28.08;;;8.20;99.90;;;;;;5035560;28;20120;-73
2021/11/15 01:24:52;;;;;;;80.75;30.13;;;8.20;99.90;;;;;;5054077;28;20045;-72
2021/11/15 01:27:19;;;;;;;75.57;28.35;;;8.20;99.90;;;;;;5055094;22;20061;-77
2021/11/15 01:29:46;;;;;;;71.43;25.08;;;8.20;99.90;;;;;;5044335;28;20128;-78
2021/11/15 01:32:14;;;;;;;73.90;26.70;;;8.20;99.90;;;;;;5046753;28;20049;-78
2021/11/15 01:34:40;;;;;;;69.55;26.27;;;8.20;99.90;;;;;;5037105;28;20069;-77
2021/11/15 01:37:07;;;;;;;67.72;24.75;;;8.10;99.90;;;;;;5030787;28;20081;-78
2021/11/15 01:39:34;;;;;;;64.18;22.98;;;8.20;99.90;;;;;;5031077;28;20080;-78
2021/11/15 01:42:03;;;;;;;69.18;25.73;;;8.20;99.90;;;;;;5027935;28;20136;-78
2021/11/15 01:44:30;;;;;;;68.57;25.45;;;8.20;99.90;;;;;;5046496;28;20076;-77
2021/11/15 01:46:57;;;;;;;71.43;25.90;;;8.10;99.90;;;;;;5033251;28;20049;-77
2021/11/15 01:49:26;;;;;;;63.58;24.65;;;8.10;99.90;;;;;;5038246;28;20469;-77
2021/11/15 01:51:53;;;;;;;65.55;24.70;;;8.10;99.90;;;;;;5034191;28;20069;-78
2021/11/15 01:54:20;;;;;;;69.68;25.20;;;8.10;99.90;;;;;;5035257;28;20562;-78
2021/11/15 01:56:51;;;;;;;67.18;25.95;;;8.10;99.90;;;;;;5035520;28;20147;-78
2021/11/15 01:59:18;;;;;;;67.55;24.08;;;8.10;99.90;;;;;;5050822;28;20053;-78
2021/11/15 02:01:45;;;;;;;62.67;23.40;;;8.10;99.90;;;;;;5044986;28;20732;-78
2021/11/15 02:04:12;;;;;;;70.30;24.30;;;8.10;99.90;;;;;;5042994;28;20128;-78
2021/11/15 02:06:39;;;;;;;71.00;24.60;;;8.10;99.90;;;;;;5017597;28;20068;-78
2021/11/15 02:09:06;;;;;;;65.35;24.23;;;8.10;99.90;;;;;;5016993;28;20136;-78
2021/11/15 02:11:34;;;;;;;63.10;23.85;;;8.10;99.90;;;;;;5035297;28;20053;-78
2021/11/15 02:14:03;;;;;;;68.95;24.98;;;8.10;99.90;;;;;;5035821;28;20498;-78
2021/11/15 02:16:30;;;;;;;61.42;23.65;;;8.10;99.90;;;;;;5034957;28;20447;-78
2021/11/15 02:18:57;;;;;;;64.32;23.30;;;8.10;99.90;;;;;;5034714;28;20046;-78
2021/11/15 02:21:24;;;;;;;63.75;23.83;;;8.10;99.90;;;;;;5045400;28;20566;-78
2021/11/15 02:23:52;;;;;;;60.60;22.05;;;8.10;99.90;;;;;;5048130;28;20128;-78
2021/11/15 02:26:21;;;;;;;59.80;23.33;;;8.10;99.90;;;;;;5047418;28;20836;-78
2021/11/15 02:28:50;;;;;;;59.15;22.90;;;8.10;99.90;;;;;;5051202;28;20456;-78
2021/11/15 02:31:22;;;;;;;67.13;23.00;;;8.00;99.90;;;;;;5049033;28;20132;-78
2021/11/15 02:33:51;;;;;;;60.20;22.95;;;8.10;99.90;;;;;;5042551;28;20071;-78
2021/11/15 02:36:20;;;;;;;57.05;21.88;;;8.10;99.90;;;;;;5035579;28;20049;-79
2021/11/15 02:38:48;;;;;;;63.67;23.63;;;8.10;99.90;;;;;;5016508;28;20060;-78
2021/11/15 02:41:19;;;;;;;58.67;23.17;;;8.10;99.90;;;;;;5032503;28;20088;-72
2021/11/15 02:43:47;;;;;;;64.40;23.35;;;8.10;99.90;;;;;;5034224;28;20108;-72
2021/11/15 02:46:14;;;;;;;57.88;21.30;;;8.10;99.90;;;;;;5036406;28;20052;-72
2021/11/15 02:48:41;;;;;;;62.83;23.75;;;8.10;99.90;;;;;;5029534;28;20064;-72
2021/11/15 02:51:09;;;;;;;64.63;22.92;;;8.00;99.90;;;;;;5017295;28;20056;-72
2021/11/15 02:53:37;;;;;;;58.35;21.95;;;8.10;99.90;;;;;;5045647;28;20160;-72
2021/11/15 02:56:04;;;;;;;59.50;22.73;;;8.00;99.90;;;;;;5041128;28;20133;-72
2021/11/15 02:58:31;;;;;;;60.67;23.13;;;8.00;99.90;;;;;;5034306;28;20152;-72
2021/11/15 03:01:05;;;;;;;65.63;22.15;;;8.00;99.90;;;;;;5040605;28;20163;-72
2021/11/15 03:03:33;;;;;;;61.72;23.23;;;8.00;99.90;;;;;;5036207;28;20045;-72
2021/11/15 03:06:00;;;;;;;57.30;22.08;;;8.00;99.90;;;;;;5047142;28;20041;-73
2021/11/15 03:08:27;;;;;;;55.45;21.63;;;8.00;99.90;;;;;;5037473;28;20095;-72
2021/11/15 03:10:58;;;;;;;60.17;22.60;;;8.00;99.90;;;;;;5028176;28;20128;-73
2021/11/15 03:13:32;;;;;;;64.03;23.35;;;8.00;99.90;;;;;;5020005;28;20041;-73
2021/11/15 03:16:00;;;;;;;57.55;21.88;;;8.00;99.90;;;;;;5040934;28;20083;-72
2021/11/15 03:18:33;;;;;;;64.85;22.83;;;8.00;99.90;;;;;;5042435;28;20728;-72
2021/11/15 03:21:04;;;;;;;64.70;23.95;;;8.00;99.90;;;;;;5033043;28;20056;-73
2021/11/15 03:23:34;;;;;;;65.00;22.05;;;8.00;99.90;;;;;;5044782;28;20049;-72
2021/11/15 03:26:01;;;;;;;63.92;22.02;;;8.00;99.90;;;;;;5044734;28;20135;-73
2021/11/15 03:28:32;;;;;;;59.05;22.42;;;8.00;99.90;;;;;;5044766;28;20135;-73
2021/11/15 03:31:03;;;;;;;63.05;23.63;;;8.00;99.90;;;;;;5036057;28;20144;-73
2021/11/15 03:33:32;;;;;;;68.72;25.17;;;8.00;99.90;;;;;;5031155;28;20804;-72
2021/11/15 03:35:59;;;;;;;63.85;24.10;;;8.10;99.90;;;;;;5035415;28;20069;-72
2021/11/15 03:38:26;;;;;;;65.32;23.00;;;8.00;99.90;;;;;;5030328;28;20063;-73
2021/11/15 03:40:53;;;;;;;61.42;21.98;;;8.00;99.90;;;;;;5031943;28;20060;-72
2021/11/15 03:43:20;;;;;;;61.05;22.98;;;8.00;99.90;;;;;;5044393;28;20482;-72
2021/11/15 03:45:47;;;;;;;61.85;23.30;;;8.00;99.90;;;;;;5016584;28;20237;-72
2021/11/15 03:48:14;;;;;;;62.22;24.35;;;8.00;99.90;;;;;;5029446;28;20610;-72
2021/11/15 03:50:41;;;;;;;63.20;23.48;;;8.00;99.90;;;;;;5023433;28;20130;-72
2021/11/15 03:53:10;;;;;;;56.13;21.73;;;8.00;99.90;;;;;;5027106;28;20764;-72
2021/11/15 03:55:38;;;;;;;61.53;22.60;;;8.00;99.90;;;;;;5029840;28;20055;-72
2021/11/15 03:58:06;;;;;;;64.57;24.15;;;8.00;99.90;;;;;;5032890;28;20156;-72
2021/11/15 04:00:35;;;;;;;72.75;24.73;;;8.00;99.90;;;;;;5037970;28;20560;-72
2021/11/15 04:03:07;;;;;;;64.38;24.13;;;8.00;99.90;;;;;;5031901;28;20042;-72
2021/11/15 04:05:38;;;;;;;60.47;23.25;;;8.00;99.90;;;;;;5009198;28;20163;-72
2021/11/15 04:08:06;;;;;;;66.07;23.30;;;8.00;99.90;;;;;;5008701;28;20051;-72
2021/11/15 04:10:43;;;;;;;61.72;24.05;;;8.00;99.90;;;;;;5037333;28;20136;-72
2021/11/15 04:13:15;;;;;;;65.13;23.70;;;8.00;99.90;;;;;;5027013;28;20466;-72
2021/11/15 04:15:43;;;;;;;67.18;24.30;;;7.90;99.90;;;;;;5027621;28;20465;-72
2021/11/15 04:18:13;;;;;;;75.70;28.60;;;8.00;99.90;;;;;;5044486;28;20194;-72
2021/11/15 04:20:40;;;;;;;73.53;27.13;;;8.00;99.90;;;;;;5032580;28;20087;-72
2021/11/15 04:23:08;;;;;;;77.20;27.63;;;8.00;99.90;;;;;;5045835;28;20155;-72
2021/11/15 04:25:35;;;;;;;73.85;28.77;;;8.00;99.90;;;;;;5022060;28;20124;-72
2021/11/15 04:28:02;;;;;;;67.47;25.90;;;8.00;99.90;;;;;;5045379;28;20047;-72
2021/11/15 04:30:31;;;;;;;78.00;28.05;;;8.00;99.90;;;;;;5031477;28;20160;-72
2021/11/15 04:32:59;;;;;;;89.13;29.20;;;8.00;99.90;;;;;;5017927;28;20045;-72
2021/11/15 04:35:27;;;;;;;88.43;29.63;;;8.00;99.90;;;;;;5035173;28;20142;-72
2021/11/15 04:37:55;;;;;;;72.13;26.55;;;8.00;99.90;;;;;;5038765;28;20125;-72
2021/11/15 04:40:22;;;;;;;80.05;27.48;;;8.00;99.90;;;;;;5043669;28;20076;-72
2021/11/15 04:42:49;;;;;;;76.55;27.52;;;8.10;99.90;;;;;;5034693;28;20049;-72
2021/11/15 04:45:16;;;;;;;74.90;26.95;;;8.00;99.90;;;;;;5041023;28;20047;-72
2021/11/15 04:47:43;;;;;;;72.82;27.33;;;8.00;99.90;;;;;;5030560;28;20120;-72
2021/11/15 04:50:10;;;;;;;76.03;27.33;;;8.00;99.90;;;;;;5017382;28;20140;-72
2021/11/15 04:52:39;;;;;;;75.55;28.13;;;8.00;99.90;;;;;;5033142;28;20049;-72
2021/11/15 04:55:08;;;;;;;75.15;28.23;;;8.00;99.90;;;;;;5030872;28;20046;-72
2021/11/15 04:57:36;;;;;;;78.78;27.20;;;8.00;99.90;;;;;;5012549;28;20458;-72
2021/11/15 05:00:13;;;;;;;79.93;27.88;;;8.00;99.90;;;;;;5027609;28;20133;-72
2021/11/15 05:02:40;;;;;;;78.55;28.38;;;8.00;99.90;;;;;;5034128;28;20144;-72
2021/11/15 05:05:07;;;;;;;79.70;28.27;;;8.00;99.90;;;;;;5037799;28;20140;-72
2021/11/15 05:07:34;;;;;;;78.35;28.33;;;8.00;99.90;;;;;;5027401;28;20076;-72
2021/11/15 05:10:01;;;;;;;79.63;25.55;;;8.00;99.90;;;;;;5028001;28;20096;-72
2021/11/15 05:12:31;;;;;;;77.97;26.90;;;8.00;99.90;;;;;;5025341;28;20080;-72
2021/11/15 05:14:57;;;;;;;72.78;27.15;;;8.00;99.90;;;;;;5033061;28;20116;-72
2021/11/15 05:17:24;;;;;;;81.63;29.40;;;8.00;99.90;;;;;;5045597;28;20056;-72
2021/11/15 05:19:51;;;;;;;72.15;26.35;;;8.00;99.90;;;;;;5041834;28;20041;-71
2021/11/15 05:22:18;;;;;;;78.53;26.88;;;7.90;99.90;;;;;;5042461;28;20234;-72
2021/11/15 05:24:44;;;;;;;80.05;28.80;;;8.00;99.90;;;;;;5022370;28;20176;-71
2021/11/15 05:27:11;;;;;;;75.43;27.85;;;7.90;99.90;;;;;;5033988;28;20152;-72
2021/11/15 05:29:43;;;;;;;84.57;30.98;;;8.00;99.90;;;;;;5041539;28;20048;-71
2021/11/15 05:32:10;;;;;;;70.95;26.92;;;8.00;99.90;;;;;;5044607;28;20055;-72
2021/11/15 05:34:37;;;;;;;86.68;29.30;;;8.00;99.90;;;;;;5039358;28;20248;-72
2021/11/15 05:37:04;;;;;;;73.97;28.42;;;8.00;99.90;;;;;;5039582;28;20553;-72
2021/11/15 05:39:31;;;;;;;81.45;28.40;;;8.00;99.90;;;;;;5016427;28;20084;-72
2021/11/15 05:41:58;;;;;;;80.80;28.67;;;8.00;99.90;;;;;;5039476;28;20137;-72
2021/11/15 05:44:26;;;;;;;75.97;27.85;;;8.00;99.90;;;;;;5029966;28;20103;-72
2021/11/15 05:46:53;;;;;;;79.25;30.08;;;8.00;99.90;;;;;;5029715;28;20465;-72
2021/11/15 05:49:20;;;;;;;83.40;29.95;;;8.00;99.90;;;;;;5031277;28;20056;-72
2021/11/15 05:51:47;;;;;;;86.75;29.52;;;8.00;99.90;;;;;;5039182;28;20769;-72
2021/11/15 05:54:14;;;;;;;85.10;30.17;;;8.00;99.90;;;;;;5030214;28;20063;-72
2021/11/15 05:56:41;;;;;;;88.78;30.88;;;8.00;99.90;;;;;;5029873;28;20045;-72
2021/11/15 05:59:07;;;;;;;87.05;30.17;;;8.00;99.90;;;;;;5038712;28;20177;-72
2021/11/15 06:01:35;;;;;;;78.15;28.88;;;8.00;99.90;;;;;;5026502;28;20049;-72
2021/11/15 06:04:01;;;;;;;74.80;28.90;;;8.00;99.90;;;;;;5021155;28;20576;-72
2021/11/15 06:06:30;;;;;;;80.45;29.45;;;8.00;99.90;;;;;;5038124;28;20049;-72
2021/11/15 06:08:56;;;;;;;78.60;29.42;;;8.00;99.90;;;;;;5034310;28;20083;-72
2021/11/15 06:11:24;;;;;;;78.75;28.25;;;7.90;99.90;;;;;;5040297;28;20103;-72
2021/11/15 06:13:50;;;;;;;86.65;30.85;;;7.90;99.90;;;;;;5029103;28;20486;-72
2021/11/15 06:16:17;;;;;;;95.25;32.40;;;7.90;99.90;;;;;;5043453;28;20081;-72
2021/11/15 06:18:44;;;;;;;85.95;28.98;;;7.90;99.90;;;;;;5044681;28;20049;-72
2021/11/15 06:21:11;;;;;;;86.90;30.52;;;7.90;99.90;;;;;;5041597;28;20596;-72
2021/11/15 06:23:38;;;;;;;85.93;29.48;;;8.00;99.90;;;;;;5028646;28;20084;-72
2021/11/15 06:26:05;;;;;;;85.32;30.73;;;8.00;99.90;;;;;;5032505;28;20737;-72
2021/11/15 06:28:32;;;;;;;84.63;30.80;;;8.00;99.90;;;;;;5036581;28;20092;-72
2021/11/15 06:30:59;;;;;;;77.72;29.20;;;8.00;99.90;;;;;;5035261;28;20173;-72
2021/11/15 06:33:25;;;;;;;76.40;29.38;;;8.00;99.90;;;;;;5038639;28;20057;-72
2021/11/15 06:35:52;;;;;;;83.95;30.42;;;8.00;99.90;;;;;;5040819;28;20080;-72
2021/11/15 06:38:19;;;;;;;89.82;31.83;;;8.00;99.90;;;;;;5027992;28;20150;-72
2021/11/15 06:40:46;;;;;;;84.35;28.75;;;8.00;99.90;;;;;;5030042;28;20083;-72
2021/11/15 06:43:13;;;;;;;80.60;29.27;;;8.00;99.90;;;;;;5026059;28;20077;-72
2021/11/15 06:45:39;;;;;;;79.15;29.42;;;8.00;99.90;;;;;;5033145;28;20160;-72
2021/11/15 06:48:06;;;;;;;81.93;28.55;;;8.00;99.90;;;;;;5045551;28;20053;-73
2021/11/15 06:50:33;;;;;;;78.13;29.00;;;8.00;99.90;;;;;;5046928;28;20080;-73
2021/11/15 06:53:00;;;;;;;76.70;27.98;;;8.00;99.90;;;;;;5043478;28;20052;-73
2021/11/15 06:55:27;;;;;;;82.78;29.40;;;8.00;99.90;;;;;;5016505;28;20175;-72
2021/11/15 06:57:54;;;;;;;76.68;27.63;;;8.00;99.90;;;;;;5038487;28;20052;-72
2021/11/15 07:00:23;;;;;;;70.78;29.88;;;8.00;99.90;;;;;;5028377;28;20080;-72
2021/11/15 07:02:51;;;;;;;83.05;28.58;;;8.00;99.90;;;;;;5024054;28;20051;-73
2021/11/15 07:05:21;;;;;;;75.03;28.92;;;8.00;99.90;;;;;;5029333;28;20088;-73
2021/11/15 07:07:49;;;;;;;75.57;28.23;;;8.00;99.90;;;;;;5036279;28;20103;-71
2021/11/15 07:10:17;;;;;;;73.10;28.67;;;8.00;99.90;;;;;;5039286;28;20044;-70
2021/11/15 07:12:46;;;;;;;78.85;30.92;;;8.00;99.90;;;;;;5045357;28;20106;-71
2021/11/15 07:15:14;;;;;;;76.63;29.30;;;8.00;99.90;;;;;;5046114;28;20076;-71
2021/11/15 07:17:42;;;;;;;79.82;30.00;;;8.10;99.90;;;;;;5034583;28;20513;-71
2021/11/15 07:20:09;;;;;;;82.38;29.63;;;8.10;99.90;;;;;;5037654;28;20722;-71
2021/11/15 07:22:37;;;;;;;77.63;29.30;;;8.10;99.90;;;;;;5040887;28;20052;-71
2021/11/15 07:25:05;;;;;;;79.13;30.58;;;8.10;99.90;;;;;;5037379;28;20049;-71
2021/11/15 07:27:31;;;;;;;77.05;27.75;;;8.10;99.90;;;;;;5031142;28;20083;-71
2021/11/15 07:29:58;;;;;;;80.13;30.58;;;8.00;99.90;;;;;;5043562;28;20053;-71
2021/11/15 07:32:25;;;;;;;79.63;29.02;;;8.10;99.90;;;;;;5035129;28;20123;-71
2021/11/15 07:34:52;;;;;;;79.47;30.20;;;8.10;99.90;;;;;;5044128;28;20850;-71
2021/11/15 07:37:20;;;;;;;76.05;27.90;;;8.10;99.90;;;;;;5045119;28;20071;-71
2021/11/15 07:39:46;;;;;;;72.40;28.55;;;8.10;99.90;;;;;;5045052;28;20059;-71
2021/11/15 07:42:16;;;;;;;75.07;28.42;;;8.10;99.90;;;;;;5046420;28;20140;-72
2021/11/15 07:44:44;;;;;;;79.35;28.67;;;8.20;99.90;;;;;;5036153;28;20133;-71
2021/11/15 07:47:14;;;;;;;73.82;26.75;;;8.20;99.90;;;;;;5026808;28;20092;-71
2021/11/15 07:49:42;;;;;;;82.47;27.00;;;8.20;99.90;;;;;;5027298;28;20136;-71
2021/11/15 07:52:11;;;;;;;80.43;27.58;;;8.20;99.90;;;;;;5036466;28;20049;-71
2021/11/15 07:54:39;;;;;;;73.85;26.95;;;8.20;99.90;;;;;;5040995;28;20136;-71
2021/11/15 07:57:08;;;;;;;74.28;26.73;;;8.20;99.90;;;;;;5044725;28;20049;-71
2021/11/15 07:59:36;;;;;;;65.57;24.83;;;8.20;99.90;;;;;;5019412;28;20076;-71
2021/11/15 08:02:03;;;;;;;70.70;27.75;;;8.20;99.90;;;;;;5015529;28;20049;-72
2021/11/15 08:04:30;;;;;;;77.32;27.20;;;8.20;99.90;;;;;;5037273;28;20469;-71
2021/11/15 08:06:57;;;;;;;77.60;25.30;;;8.20;99.90;;;;;;5033720;28;20127;-71
2021/11/15 08:09:25;;;;;;;63.78;25.27;;;8.20;99.90;;;;;;5045713;28;20045;-71
2021/11/15 08:11:57;;;;;;;74.97;26.45;;;8.20;99.90;;;;;;5038603;28;20656;-71
2021/11/15 08:14:24;;;;;;;73.75;26.67;;;8.20;99.90;;;;;;5033702;28;20067;-71
2021/11/15 08:16:52;;;;;;;63.17;23.45;;;8.20;99.90;;;;;;5023072;28;20045;-71
2021/11/15 08:19:19;;;;;;;63.53;25.15;;;8.20;99.90;;;;;;5034716;28;20115;-71
2021/11/15 08:21:47;;;;;;;70.15;24.40;;;8.20;99.90;;;;;;5046132;28;20135;-72
2021/11/15 08:24:17;;;;;;;59.10;23.13;;;8.20;99.90;;;;;;5037398;28;20924;-72
2021/11/15 08:26:51;;;;;;;56.88;24.73;;;8.20;99.90;;;;;;5043009;28;20056;-72
2021/11/15 08:29:20;;;;;;;53.45;21.65;;;8.20;99.90;;;;;;5026455;28;20053;-72
2021/11/15 08:31:47;;;;;;;49.40;21.02;;;8.20;99.90;;;;;;5035573;28;20154;-72
2021/11/15 08:34:16;;;;;;;55.67;21.30;;;8.20;99.90;;;;;;5034898;28;20049;-72
2021/11/15 08:36:43;;;;;;;60.75;22.30;;;8.20;99.90;;;;;;5030458;28;20084;-71
2021/11/15 08:39:16;;;;;;;56.65;21.33;;;8.30;99.90;;;;;;5028163;28;20063;-71
2021/11/15 08:41:47;;;;;;;58.83;21.98;;;8.20;99.90;;;;;;5027508;28;20179;-71
2021/11/15 08:44:17;;;;;;;56.92;21.77;;;8.30;99.90;;;;;;5042106;28;20446;-72
2021/11/15 08:46:45;;;;;;;53.97;21.50;;;8.30;99.90;;;;;;5045682;28;20049;-72
2021/11/15 08:49:15;;;;;;;64.28;23.45;;;8.30;99.90;;;;;;5024252;28;20103;-72
2021/11/15 08:51:43;;;;;;;57.20;22.40;;;8.30;99.90;;;;;;5031453;28;20084;-71
2021/11/15 08:54:15;;;;;;;60.70;22.35;;;8.30;99.90;;;;;;5031602;28;20164;-72
2021/11/15 08:59:55;;;;;;;53.35;21.08;;;8.30;99.90;;;;;;5035872;28;20104;-71
2021/11/15 09:02:22;;;;;;;60.92;22.75;;;8.40;99.90;;;;;;5022012;28;20079;-71
2021/11/15 09:04:48;;;;;;;55.92;21.52;;;8.40;99.90;;;;;;5037606;28;20841;-71
2021/11/15 09:07:15;;;;;;;61.20;24.20;;;8.40;99.90;;;;;;5036893;28;20053;-71
2021/11/15 09:09:42;;;;;;;95.13;34.17;;;8.30;99.90;;;;;;5042656;28;20842;-72
2021/11/15 09:12:10;;;;;;;60.38;24.75;;;8.40;99.90;;;;;;5048653;28;20053;-71
2021/11/15 09:14:37;;;;;;;61.42;24.77;;;8.40;99.90;;;;;;5031112;28;20076;-71
2021/11/15 09:17:05;;;;;;;63.03;25.55;;;8.40;99.90;;;;;;5040379;28;20054;-71
2021/11/15 09:19:32;;;;;;;52.17;21.88;;;8.40;99.90;;;;;;5045284;22;20120;-71
2021/11/15 09:21:58;;;;;;;58.15;23.10;;;8.40;99.90;;;;;;5031044;28;20128;-71
2021/11/15 09:24:26;;;;;;;50.72;19.50;;;8.40;99.90;;;;;;5030363;28;20053;-71
2021/11/15 09:26:54;;;;;;;55.88;20.95;;;8.40;99.90;;;;;;5022373;28;20045;-71
2021/11/15 09:29:22;;;;;;;47.53;18.83;;;8.50;99.90;;;;;;5012761;28;20072;-71
2021/11/15 09:31:49;;;;;;;50.35;18.73;;;8.50;99.90;;;;;;5038622;28;20041;-71
2021/11/15 09:34:16;;;;;;;48.20;19.10;;;8.40;99.90;;;;;;5038003;28;20041;-72
2021/11/15 09:36:43;;;;;;;52.13;18.35;;;8.40;99.90;;;;;;5040265;28;20549;-71
2021/11/15 09:39:10;;;;;;;55.13;19.35;;;8.40;99.90;;;;;;5048594;28;20128;-71
2021/11/15 09:41:38;;;;;;;49.08;19.15;;;8.40;99.90;;;;;;5049162;28;20045;-72
2021/11/15 09:44:05;;;;;;;46.90;20.15;;;8.50;99.90;;;;;;5030888;28;20080;-72
2021/11/15 09:46:33;;;;;;;60.85;21.05;;;8.50;99.90;;;;;;5047448;28;20744;-72
2021/11/15 09:49:10;;;;;;;62.05;22.55;;;8.40;99.90;;;;;;5046864;28;20132;-72
2021/11/15 09:51:39;;;;;;;54.00;22.35;;;8.40;99.90;;;;;;5021127;28;20076;-72
2021/11/15 09:54:08;;;;;;;52.67;21.98;;;8.30;99.90;;;;;;5045948;28;20057;-72
2021/11/15 09:56:35;;;;;;;53.55;22.52;;;8.30;99.90;;;;;;5031003;28;20131;-72
2021/11/15 09:59:03;;;;;;;53.45;21.73;;;8.30;99.90;;;;;;5037236;28;20525;-72
2021/11/15 10:01:30;;;;;;;50.92;20.92;;;8.30;99.90;;;;;;5046343;28;20139;-73
2021/11/15 10:03:58;;;;;;;50.30;19.98;;;8.30;99.90;;;;;;5017898;28;20085;-73
2021/11/15 10:06:25;;;;;;;58.08;20.02;;;8.30;99.90;;;;;;5028786;28;20085;-73
2021/11/15 10:08:54;;;;;;;57.15;22.95;;;8.30;99.90;;;;;;5011726;28;20060;-73
2021/11/15 10:11:24;;;;;;;51.15;22.33;;;8.40;99.90;;;;;;5030174;28;20042;-72
2021/11/15 10:13:53;;;;;;;58.80;25.05;;;8.30;99.90;;;;;;5011021;28;20811;-74
2021/11/15 10:16:26;;;;;;;60.88;24.42;;;8.30;99.90;;;;;;5038539;28;20072;-72
2021/11/15 10:18:57;;;;;;;56.72;23.15;;;8.30;99.90;;;;;;5030264;28;20060;-73
2021/11/15 10:21:46;;;;;;;55.33;22.77;;;8.30;99.90;;;;;;5021615;28;20165;-72
2021/11/15 10:24:20;;;;;;;60.20;23.23;;;8.30;99.90;;;;;;5045390;28;20068;-72
2021/11/15 10:26:58;;;;;;;55.33;23.08;;;8.30;99.90;;;;;;5031435;28;20128;-72
2021/11/15 10:29:39;;;;;;;61.38;21.85;;;8.30;99.90;;;;;;5043878;28;20045;-72
2021/11/15 10:32:10;;;;;;;63.70;24.17;;;8.30;99.90;;;;;;5041004;28;20431;-71
2021/11/15 10:34:49;;;;;;;49.30;21.02;;;8.30;99.90;;;;;;5037860;28;20092;-72
2021/11/15 10:37:28;;;;;;;54.17;21.40;;;8.30;99.90;;;;;;5028574;28;20089;-72
2021/11/15 10:40:02;;;;;;;59.60;20.77;;;8.30;99.90;;;;;;5036182;28;20853;-72
2021/11/15 10:42:38;;;;;;;60.05;22.90;;;8.30;99.90;;;;;;5046329;28;20056;-72
2021/11/15 10:45:14;;;;;;;56.42;21.77;;;8.30;99.90;;;;;;5016933;28;20124;-72
2021/11/15 10:47:44;;;;;;;54.72;21.17;;;8.30;99.90;;;;;;5028815;28;20089;-72
2021/11/15 10:50:29;;;;;;;60.28;21.58;;;8.20;99.90;;;;;;5043929;28;20083;-71
2021/11/15 10:53:08;;;;;;;52.70;20.60;;;8.20;99.90;;;;;;5024616;28;20041;-72
2021/11/15 10:56:04;;;;;;;58.58;21.23;;;8.20;99.90;;;;;;5036260;28;20136;-72
2021/11/15 10:58:46;;;;;;;46.17;18.77;;;8.20;99.90;;;;;;5018884;28;20429;-73
2021/11/15 11:01:14;;;;;;;53.58;20.40;;;8.20;99.90;;;;;;5046207;28;20148;-73
2021/11/15 11:03:42;;;;;;;58.03;19.88;;;8.20;99.90;;;;;;5017815;28;20046;-74
2021/11/15 11:06:14;;;;;;;51.70;20.48;;;8.20;99.90;;;;;;5009810;28;20100;-74
2021/11/15 11:08:45;;;;;;;49.65;18.45;;;8.20;99.90;;;;;;5009888;28;20081;-74
2021/11/15 11:11:27;;;;;;;49.15;18.65;;;8.20;99.90;;;;;;5029566;28;20091;-74
2021/11/15 11:14:02;;;;;;;50.15;19.95;;;8.20;99.90;;;;;;5027800;28;20109;-73
2021/11/15 11:16:43;;;;;;;52.13;18.27;;;8.20;99.90;;;;;;5017817;28;20140;-73
2021/11/15 11:25:26;;;;;;;45.33;17.35;;;8.10;99.90;;;;;;5022056;28;20171;-72
2021/11/15 11:27:55;;;;;;;49.45;17.98;;;8.10;99.90;;;;;;5026984;28;20136;-73
2021/11/15 11:30:22;;;;;;;43.88;16.25;;;8.10;99.90;;;;;;5025643;28;20132;-73
2021/11/15 11:32:52;;;;;;;49.47;17.50;;;8.10;99.90;;;;;;5033917;28;20154;-72
2021/11/15 11:35:19;;;;;;;55.47;19.40;;;8.10;99.90;;;;;;5019873;28;20053;-72
2021/11/15 11:37:46;;;;;;;47.83;17.85;;;8.10;99.90;;;;;;5006111;28;20057;-72
2021/11/15 11:40:14;;;;;;;43.60;17.33;;;8.00;99.90;;;;;;5014383;28;20049;-73
2021/11/15 11:42:41;;;;;;;42.88;16.80;;;8.00;99.90;;;;;;5006607;28;20533;-73
2021/11/15 11:45:11;;;;;;;41.45;15.80;;;8.00;99.90;;;;;;5007379;28;20058;-73
2021/11/15 11:47:40;;;;;;;50.33;18.23;;;7.90;99.90;;;;;;5013265;28;20701;-73
2021/11/15 11:50:09;;;;;;;47.92;17.90;;;7.90;99.90;;;;;;5005687;28;20085;-74
2021/11/15 11:52:40;;;;;;;46.72;18.05;;;8.00;99.90;;;;;;5018017;28;20049;-73
2021/11/15 11:55:16;;;;;;;43.63;17.88;;;7.90;99.90;;;;;;5023893;28;20128;-73
2021/11/15 11:57:43;;;;;;;48.03;17.48;;;8.00;99.90;;;;;;5018951;28;20226;-73
2021/11/15 12:00:14;;;;;;;49.70;18.13;;;8.00;99.90;;;;;;5019128;28;20736;-74
2021/11/15 12:02:46;;;;;;;49.95;19.42;;;8.00;99.90;;;;;;5027346;28;20069;-74
2021/11/15 12:05:18;;;;;;;49.35;16.98;;;7.90;99.90;;;;;;5022107;28;20096;-73
2021/11/15 12:07:55;;;;;;;56.63;18.27;;;7.90;99.90;;;;;;5008265;28;20108;-73
2021/11/15 12:10:42;;;;;;;47.42;18.13;;;7.90;99.90;;;;;;5018275;28;20084;-74
2021/11/15 12:13:15;;;;;;;46.92;17.63;;;7.90;99.90;;;;;;5012319;28;20049;-74
2021/11/15 12:16:05;;;;;;;51.30;18.52;;;7.90;99.90;;;;;;5024807;28;20152;-74
2021/11/15 12:18:36;;;;;;;50.72;18.23;;;7.90;99.90;;;;;;5026742;28;20057;-73
2021/11/15 12:21:09;;;;;;;54.38;19.45;;;7.90;99.90;;;;;;5013415;28;20418;-73
2021/11/15 12:23:51;;;;;;;44.35;15.88;;;7.90;99.90;;;;;;5020084;28;20451;-74
2021/11/15 12:26:24;;;;;;;45.63;14.60;;;7.90;99.90;;;;;;5022444;28;20046;-74
2021/11/15 12:28:54;;;;;;;36.95;14.32;;;7.90;99.90;;;;;;5016189;28;20590;-74
2021/11/15 12:31:43;;;;;;;42.80;15.15;;;7.90;99.90;;;;;;5017065;28;20085;-74
2021/11/15 12:34:20;;;;;;;45.80;16.42;;;7.70;99.90;;;;;;5017342;28;20045;-73
2021/11/15 12:36:51;;;;;;;38.47;14.80;;;7.80;99.90;;;;;;5014138;28;20121;-74
2021/11/15 12:39:22;;;;;;;50.38;17.52;;;7.80;99.90;;;;;;5022098;28;20103;-74
2021/11/15 12:41:52;;;;;;;45.83;16.38;;;7.80;99.90;;;;;;5014800;28;20126;-73
2021/11/15 12:44:20;;;;;;;40.03;15.90;;;7.80;99.90;;;;;;5018087;28;20053;-74
2021/11/15 12:46:56;;;;;;;51.03;16.73;;;7.80;99.90;;;;;;5022716;28;20052;-74
2021/11/15 12:49:31;;;;;;;47.20;16.23;;;7.80;99.90;;;;;;5014987;28;20129;-74
2021/11/15 12:52:07;;;;;;;43.25;16.20;;;7.80;99.90;;;;;;5041502;28;20713;-74
2021/11/15 12:54:35;;;;;;;42.13;14.95;;;7.80;99.90;;;;;;5021262;28;20076;-73